Time;durP1;ratioP1;P1;durP2;ratioP2;P2;SDS_P1;SDS_P2;PMS_P1;PMS_P2;Temp;Humidity;BMP_temperature;BMP_pressure;BME280_temperature;BME280_humidity;BME280_pressure;Samples;Min_cycle;Max_cycle;Signal;HPM_P1;HPM_P2
2022/02/21 00:01:18;;;;;;;4.93;1.55;;;22.90;54.00;;;;;;5003341;28;20224;-55
2022/02/21 00:03:48;;;;;;;3.17;1.33;;;22.90;54.10;;;;;;4987598;28;20273;-56
2022/02/21 00:06:19;;;;;;;4.80;1.60;;;22.90;54.10;;;;;;4989404;28;20252;-51
2022/02/21 00:08:50;;;;;;;5.15;2.00;;;23.00;54.10;;;;;;4989001;28;20573;-57
2022/02/21 00:11:22;;;;;;;5.68;1.77;;;23.00;54.10;;;;;;4988446;28;20685;-55
2022/02/21 00:13:53;;;;;;;4.30;1.10;;;23.00;54.10;;;;;;4988576;28;20189;-57
2022/02/21 00:16:23;;;;;;;3.25;1.00;;;23.00;54.10;;;;;;4989321;28;20244;-53
2022/02/21 00:18:54;;;;;;;4.03;1.33;;;23.10;54.10;;;;;;4989529;28;20273;-56
2022/02/21 00:21:24;;;;;;;4.55;1.42;;;23.10;54.10;;;;;;4988342;28;20225;-59
2022/02/21 00:23:55;;;;;;;4.60;1.58;;;23.10;54.20;;;;;;4989632;28;20201;-58
2022/02/21 00:26:27;;;;;;;6.22;1.52;;;23.20;54.20;;;;;;4988924;28;20198;-59
2022/02/21 00:28:58;;;;;;;3.92;1.23;;;23.20;54.10;;;;;;4988621;28;21727;-53
2022/02/21 00:31:29;;;;;;;3.08;1.30;;;23.20;54.10;;;;;;4988482;28;20221;-59
2022/02/21 00:33:59;;;;;;;5.85;1.30;;;23.20;54.00;;;;;;4988379;28;20198;-60
2022/02/21 00:36:30;;;;;;;2.70;1.30;;;23.20;54.00;;;;;;4989362;28;20209;-59
2022/02/21 00:39:00;;;;;;;2.78;1.23;;;23.30;54.10;;;;;;4989390;28;20526;-59
2022/02/21 00:41:35;;;;;;;3.60;1.40;;;23.30;54.00;;;;;;4988991;28;20222;-61
2022/02/21 00:44:09;;;;;;;3.92;1.50;;;23.30;54.60;;;;;;4990696;28;20680;-61
2022/02/21 00:46:39;;;;;;;4.47;1.45;;;23.40;54.20;;;;;;4988758;28;20189;-55
2022/02/21 00:49:10;;;;;;;3.38;1.33;;;23.40;54.10;;;;;;4989100;28;20252;-59
2022/02/21 00:51:41;;;;;;;4.78;1.45;;;23.40;54.00;;;;;;4987558;28;20224;-55
2022/02/21 00:54:11;;;;;;;5.50;1.20;;;23.40;54.00;;;;;;4988259;28;20657;-58
2022/02/21 00:56:44;;;;;;;3.05;1.42;;;23.50;54.00;;;;;;4988438;28;20256;-56
2022/02/21 00:59:14;;;;;;;4.57;1.60;;;23.50;54.00;;;;;;4988700;28;20244;-60
2022/02/21 01:01:45;;;;;;;5.25;1.58;;;23.50;54.00;;;;;;4988759;28;20237;-58
2022/02/21 01:04:15;;;;;;;3.75;1.42;;;23.50;53.80;;;;;;4988039;28;20209;-60
2022/02/21 01:06:46;;;;;;;5.18;1.63;;;23.60;53.90;;;;;;4989005;28;20256;-59
2022/02/21 01:09:17;;;;;;;3.55;1.60;;;23.60;53.90;;;;;;4989315;28;20197;-57
2022/02/21 01:11:49;;;;;;;2.97;1.23;;;23.60;54.00;;;;;;4988035;28;20221;-60
2022/02/21 01:14:20;;;;;;;3.40;1.58;;;23.60;53.90;;;;;;4989238;28;20280;-61
2022/02/21 01:16:50;;;;;;;3.45;1.42;;;23.70;54.00;;;;;;4988509;28;20198;-60
2022/02/21 01:19:21;;;;;;;4.28;1.42;;;23.70;53.90;;;;;;4989013;28;20531;-53
2022/02/21 01:21:52;;;;;;;4.95;1.50;;;23.70;53.90;;;;;;4988617;28;20295;-62
2022/02/21 01:24:22;;;;;;;4.55;1.48;;;23.70;53.80;;;;;;4988791;28;20890;-59
2022/02/21 01:26:55;;;;;;;4.82;1.48;;;23.70;53.80;;;;;;4990287;28;20269;-61
2022/02/21 01:29:25;;;;;;;3.00;1.10;;;23.70;53.80;;;;;;4992319;28;20240;-60
2022/02/21 01:31:56;;;;;;;3.40;1.48;;;23.80;53.70;;;;;;4992333;28;20197;-59
2022/02/21 01:34:26;;;;;;;3.05;1.40;;;23.80;53.70;;;;;;4992241;28;20193;-59
2022/02/21 01:36:57;;;;;;;7.53;1.55;;;23.80;53.60;;;;;;4992360;28;20237;-60
2022/02/21 01:39:27;;;;;;;2.83;1.40;;;23.90;53.60;;;;;;4992597;28;20194;-62
2022/02/21 01:42:00;;;;;;;2.33;1.20;;;23.90;53.50;;;;;;4993747;28;20229;-57
2022/02/21 01:44:41;;;;;;;4.43;1.55;;;23.90;53.50;;;;;;4993314;28;20209;-57
2022/02/21 01:47:13;;;;;;;4.45;1.42;;;24.00;53.50;;;;;;4992039;28;20283;-55
2022/02/21 01:49:44;;;;;;;4.00;1.40;;;23.90;53.40;;;;;;4992051;28;20201;-56
2022/02/21 01:52:20;;;;;;;4.43;1.15;;;24.00;53.50;;;;;;4992056;28;20273;-56
2022/02/21 01:54:51;;;;;;;5.22;1.52;;;24.00;53.50;;;;;;4992161;28;20231;-61
2022/02/21 01:57:24;;;;;;;5.10;1.38;;;24.00;53.40;;;;;;5009120;28;20189;-56
2022/02/21 01:59:55;;;;;;;4.38;1.50;;;24.10;53.40;;;;;;4991289;28;20213;-59
2022/02/21 02:02:25;;;;;;;4.55;1.40;;;24.10;53.40;;;;;;4992067;28;20194;-52
2022/02/21 02:04:56;;;;;;;3.45;1.17;;;24.00;53.40;;;;;;4991646;28;20194;-54
2022/02/21 02:07:27;;;;;;;4.57;1.70;;;24.10;53.40;;;;;;4991392;28;20196;-55
2022/02/21 02:09:57;;;;;;;5.38;1.65;;;24.10;53.40;;;;;;4992131;28;20232;-56
2022/02/21 02:12:30;;;;;;;4.57;1.20;;;24.10;53.40;;;;;;4991895;28;20206;-51
2022/02/21 02:15:01;;;;;;;4.75;1.42;;;24.20;53.40;;;;;;4991945;28;20685;-52
2022/02/21 02:17:31;;;;;;;5.43;1.33;;;24.20;53.40;;;;;;4991916;28;20256;-59
2022/02/21 02:20:07;;;;;;;6.00;1.83;;;24.20;53.40;;;;;;4990723;28;20244;-55
2022/02/21 02:22:40;;;;;;;3.80;1.38;;;24.20;53.30;;;;;;4991570;28;20209;-57
2022/02/21 02:25:11;;;;;;;3.03;1.30;;;24.20;53.30;;;;;;4991682;28;20201;-61
2022/02/21 02:27:41;;;;;;;5.22;1.30;;;24.20;53.30;;;;;;4991044;28;20189;-49
2022/02/21 02:30:13;;;;;;;5.05;1.15;;;24.30;53.20;;;;;;4991604;28;20214;-56
2022/02/21 02:32:46;;;;;;;5.22;1.40;;;24.30;53.20;;;;;;4990694;28;20268;-61
2022/02/21 02:35:16;;;;;;;3.85;1.27;;;24.30;53.20;;;;;;4989936;28;21543;-61
2022/02/21 02:37:49;;;;;;;5.18;1.55;;;24.30;53.20;;;;;;4991009;28;20189;-60
2022/02/21 02:40:19;;;;;;;4.50;1.60;;;24.40;53.30;;;;;;4990560;28;20621;-57
2022/02/21 02:42:50;;;;;;;4.85;1.38;;;24.30;53.10;;;;;;4991471;28;20202;-60
2022/02/21 02:45:21;;;;;;;6.07;1.67;;;24.40;53.20;;;;;;4991112;28;20212;-59
2022/02/21 02:47:51;;;;;;;3.95;1.35;;;24.40;53.20;;;;;;4991236;28;20252;-59
2022/02/21 02:50:22;;;;;;;2.45;1.38;;;24.40;53.10;;;;;;4990422;28;20307;-61
2022/02/21 02:52:54;;;;;;;4.53;1.52;;;24.40;53.10;;;;;;4990999;28;20248;-48
2022/02/21 02:55:25;;;;;;;4.00;1.48;;;24.50;53.20;;;;;;4991540;28;21536;-59
2022/02/21 02:57:56;;;;;;;8.30;1.98;;;24.50;53.30;;;;;;4990356;28;20198;-54
2022/02/21 03:00:26;;;;;;;5.15;1.67;;;24.50;53.40;;;;;;4990499;28;20276;-57
2022/02/21 03:03:00;;;;;;;7.75;1.98;;;24.50;53.40;;;;;;4990033;28;20201;-53
2022/02/21 03:05:31;;;;;;;5.90;2.03;;;24.50;53.50;;;;;;4990520;28;20222;-60
2022/02/21 03:08:03;;;;;;;6.07;2.15;;;24.50;53.60;;;;;;4990659;28;20281;-59
2022/02/21 03:10:34;;;;;;;5.90;1.90;;;24.50;53.60;;;;;;4990832;28;20562;-53
2022/02/21 03:13:04;;;;;;;4.38;1.52;;;24.50;53.60;;;;;;4990552;28;20832;-52
2022/02/21 03:15:35;;;;;;;6.90;1.70;;;24.60;53.60;;;;;;4990099;28;20197;-52
2022/02/21 03:18:09;;;;;;;4.38;1.27;;;24.60;53.50;;;;;;4989489;28;20244;-52
2022/02/21 03:20:39;;;;;;;5.32;1.70;;;24.60;53.50;;;;;;4989322;28;20602;-54
2022/02/21 03:23:12;;;;;;;6.90;2.08;;;24.70;53.50;;;;;;4990562;28;20194;-58
2022/02/21 03:25:42;;;;;;;4.03;1.55;;;24.70;53.50;;;;;;4990399;28;20260;-54
2022/02/21 03:28:13;;;;;;;4.18;1.48;;;24.70;53.40;;;;;;4989227;28;20248;-57
2022/02/21 03:30:43;;;;;;;6.63;2.00;;;24.70;53.30;;;;;;4990009;28;20214;-58
2022/02/21 03:33:15;;;;;;;4.10;1.45;;;24.70;53.30;;;;;;4989996;28;20271;-49
2022/02/21 03:35:45;;;;;;;4.68;1.75;;;24.80;53.20;;;;;;4990617;28;20241;-58
2022/02/21 03:38:18;;;;;;;3.22;1.60;;;24.80;53.30;;;;;;4989824;28;20205;-52
2022/02/21 03:40:51;;;;;;;6.78;1.67;;;24.90;53.40;;;;;;4990822;28;20210;-55
2022/02/21 03:43:22;;;;;;;6.57;1.67;;;24.90;53.30;;;;;;4989773;28;20281;-56
2022/02/21 03:45:52;;;;;;;5.88;1.80;;;24.90;53.30;;;;;;4989085;28;20202;-59
2022/02/21 03:48:23;;;;;;;5.07;1.80;;;24.90;53.20;;;;;;4989414;28;20190;-59
2022/02/21 03:50:53;;;;;;;4.72;1.60;;;25.00;53.20;;;;;;4989900;28;20221;-51
2022/02/21 03:53:26;;;;;;;5.20;1.40;;;25.00;53.10;;;;;;4988777;28;20349;-59
2022/02/21 03:55:57;;;;;;;5.03;1.67;;;25.00;53.30;;;;;;4989793;28;20197;-58
2022/02/21 03:58:27;;;;;;;3.83;1.60;;;25.10;53.10;;;;;;4989473;28;20244;-58
2022/02/21 04:00:58;;;;;;;4.20;1.35;;;25.10;53.00;;;;;;4989874;28;20225;-56
2022/02/21 04:03:29;;;;;;;3.85;1.25;;;25.10;53.00;;;;;;4990089;28;20248;-57
2022/02/21 04:05:59;;;;;;;4.65;1.63;;;25.20;53.00;;;;;;4988654;28;20186;-52
2022/02/21 04:08:31;;;;;;;3.65;1.50;;;25.20;53.00;;;;;;4989713;28;20248;-58
2022/02/21 04:11:02;;;;;;;3.33;1.33;;;25.30;52.90;;;;;;4989480;28;20340;-59
2022/02/21 04:13:36;;;;;;;4.38;1.58;;;25.30;52.90;;;;;;4990006;28;20194;-58
2022/02/21 04:16:07;;;;;;;4.10;1.38;;;25.30;52.80;;;;;;4988633;28;20189;-59
2022/02/21 04:18:37;;;;;;;3.80;1.40;;;25.30;52.70;;;;;;4989396;28;20261;-59
2022/02/21 04:21:08;;;;;;;4.60;1.42;;;25.30;52.70;;;;;;4988870;28;20299;-59
2022/02/21 04:23:40;;;;;;;4.10;1.23;;;25.40;52.60;;;;;;4988452;28;20194;-59
2022/02/21 04:26:11;;;;;;;3.92;1.45;;;25.50;52.70;;;;;;4988935;28;20333;-60
2022/02/21 04:28:42;;;;;;;4.15;1.45;;;25.50;52.60;;;;;;4989011;28;20210;-58
2022/02/21 04:31:14;;;;;;;4.93;1.40;;;25.50;52.50;;;;;;4988381;28;20322;-58
2022/02/21 04:33:46;;;;;;;3.15;1.20;;;25.50;52.40;;;;;;4988768;28;20206;-58
2022/02/21 04:36:17;;;;;;;4.30;1.30;;;25.60;52.40;;;;;;4989797;28;20204;-60
2022/02/21 04:38:50;;;;;;;2.92;1.55;;;25.60;53.00;;;;;;4988946;28;20205;-62
2022/02/21 04:41:20;;;;;;;5.10;1.70;;;25.60;52.30;;;;;;4989193;28;20225;-58
2022/02/21 04:43:53;;;;;;;2.97;1.30;;;25.70;52.40;;;;;;4989490;28;20268;-58
2022/02/21 04:46:24;;;;;;;3.38;1.20;;;25.70;52.30;;;;;;4989408;28;20198;-57
2022/02/21 04:48:55;;;;;;;3.00;1.30;;;25.70;52.30;;;;;;4988619;28;20201;-57
2022/02/21 04:51:25;;;;;;;4.93;1.30;;;25.80;52.30;;;;;;4989356;28;20264;-58
2022/02/21 04:53:58;;;;;;;4.38;1.70;;;25.80;52.20;;;;;;4989036;28;20202;-55
2022/02/21 04:56:28;;;;;;;3.55;1.30;;;25.80;52.20;;;;;;4988425;28;20216;-56
2022/02/21 04:58:59;;;;;;;3.33;1.50;;;25.80;52.10;;;;;;4989350;28;20198;-59
2022/02/21 05:01:29;;;;;;;4.65;1.85;;;25.90;52.20;;;;;;4990319;28;20284;-59
2022/02/21 05:04:00;;;;;;;3.30;1.23;;;25.90;52.10;;;;;;4993016;28;20209;-59
2022/02/21 05:06:31;;;;;;;8.25;1.90;;;25.90;52.00;;;;;;4992177;28;20197;-60
2022/02/21 05:09:03;;;;;;;8.07;1.50;;;26.00;52.10;;;;;;4991819;28;20661;-58
2022/02/21 05:11:34;;;;;;;5.15;1.40;;;26.00;52.10;;;;;;4992492;28;20225;-58
2022/02/21 05:14:07;;;;;;;3.75;1.60;;;26.00;52.00;;;;;;4993426;28;20205;-58
2022/02/21 05:16:37;;;;;;;3.83;1.58;;;26.10;52.00;;;;;;4992958;28;20193;-58
2022/02/21 05:19:08;;;;;;;5.10;1.35;;;26.10;51.90;;;;;;4992911;28;20248;-58
2022/02/21 05:21:39;;;;;;;5.78;1.63;;;26.10;51.80;;;;;;4992275;28;20751;-59
2022/02/21 05:24:12;;;;;;;5.60;1.60;;;26.20;51.90;;;;;;4992817;28;20193;-59
2022/02/21 05:26:42;;;;;;;4.00;1.40;;;26.20;51.80;;;;;;4991881;28;20252;-58
2022/02/21 05:29:13;;;;;;;7.03;1.63;;;26.20;51.80;;;;;;4991907;28;20205;-58
2022/02/21 05:31:44;;;;;;;3.88;1.38;;;26.20;52.30;;;;;;4992304;28;20228;-58
2022/02/21 05:34:14;;;;;;;3.70;1.30;;;26.20;51.70;;;;;;4992531;28;20197;-59
2022/02/21 05:36:45;;;;;;;3.17;1.13;;;26.20;51.70;;;;;;4992054;28;20194;-59
2022/02/21 05:39:18;;;;;;;5.25;1.63;;;26.30;51.80;;;;;;4992729;28;20198;-59
2022/02/21 05:41:50;;;;;;;2.75;1.15;;;26.30;51.80;;;;;;4991022;28;20275;-58
2022/02/21 05:44:21;;;;;;;3.78;1.70;;;26.30;51.90;;;;;;4991386;28;20279;-58
2022/02/21 05:46:51;;;;;;;5.55;1.70;;;26.30;51.80;;;;;;4992601;28;20201;-49
2022/02/21 05:49:22;;;;;;;4.03;1.30;;;26.30;51.80;;;;;;4992609;28;20252;-54
2022/02/21 05:51:52;;;;;;;4.53;1.55;;;26.40;51.80;;;;;;4992547;28;20213;-53
2022/02/21 05:54:25;;;;;;;4.25;1.60;;;26.40;51.80;;;;;;4992622;28;20256;-55
2022/02/21 05:56:56;;;;;;;4.55;1.40;;;26.40;51.70;;;;;;4990427;28;20638;-51
2022/02/21 05:59:27;;;;;;;4.22;1.50;;;26.40;51.70;;;;;;4991960;28;20225;-52
2022/02/21 06:01:57;;;;;;;3.35;1.48;;;26.50;51.80;;;;;;4991706;28;20260;-55
2022/02/21 06:04:28;;;;;;;4.13;1.60;;;26.50;51.70;;;;;;5022889;23;20228;-58
2022/02/21 06:06:59;;;;;;;4.65;1.60;;;26.50;51.60;;;;;;5031398;28;20226;-58
2022/02/21 06:09:31;;;;;;;4.35;1.65;;;26.50;51.50;;;;;;5029391;28;20205;-58
2022/02/21 06:12:02;;;;;;;3.88;1.40;;;26.50;51.40;;;;;;5010509;28;20254;-58
2022/02/21 06:14:32;;;;;;;3.03;1.30;;;26.50;51.40;;;;;;5010844;28;20680;-59
2022/02/21 06:17:03;;;;;;;3.03;1.30;;;26.50;51.30;;;;;;5011320;28;20649;-57
2022/02/21 06:19:33;;;;;;;1.65;0.98;;;26.60;51.40;;;;;;5011244;28;20602;-58
2022/02/21 06:22:04;;;;;;;2.53;1.27;;;26.60;51.30;;;;;;5010930;28;20221;-58
2022/02/21 06:24:37;;;;;;;6.30;1.83;;;26.60;51.30;;;;;;5011252;28;20201;-60
2022/02/21 06:27:08;;;;;;;3.78;1.15;;;26.60;51.30;;;;;;5011089;28;20200;-58
2022/02/21 06:29:39;;;;;;;4.90;1.50;;;26.60;51.30;;;;;;5010908;28;20201;-58
2022/02/21 06:32:10;;;;;;;4.18;1.55;;;26.60;51.80;;;;;;5008607;28;20200;-57
2022/02/21 06:34:40;;;;;;;3.38;1.50;;;26.60;51.80;;;;;;5009881;28;20645;-57
2022/02/21 06:37:11;;;;;;;3.58;1.40;;;26.60;51.20;;;;;;5007789;28;20204;-55
2022/02/21 06:39:44;;;;;;;4.38;1.30;;;26.60;51.20;;;;;;5010635;28;20255;-58
2022/02/21 06:42:14;;;;;;;3.92;1.23;;;26.60;51.10;;;;;;5009616;28;20220;-58
2022/02/21 06:44:45;;;;;;;3.42;1.30;;;26.60;51.10;;;;;;5009842;28;20201;-58
2022/02/21 06:47:15;;;;;;;3.00;1.10;;;26.60;51.00;;;;;;4992166;28;20684;-58
2022/02/21 06:49:46;;;;;;;2.67;1.23;;;26.60;51.10;;;;;;4992449;28;20198;-58
2022/02/21 06:52:17;;;;;;;3.65;1.50;;;26.60;51.10;;;;;;4992341;28;20205;-57
2022/02/21 06:54:52;;;;;;;2.97;1.25;;;26.60;51.00;;;;;;4992668;28;20240;-58
2022/02/21 06:57:23;;;;;;;3.38;1.23;;;26.60;51.10;;;;;;4991747;28;20200;-57
2022/02/21 06:59:53;;;;;;;2.22;1.17;;;26.60;51.00;;;;;;4992314;28;20225;-58
2022/02/21 07:02:24;;;;;;;6.80;1.70;;;26.60;51.00;;;;;;4992009;28;20272;-58
2022/02/21 07:04:55;;;;;;;3.00;1.20;;;26.60;51.10;;;;;;4992818;28;20264;-58
2022/02/21 07:07:25;;;;;;;3.05;1.48;;;26.60;51.00;;;;;;4992467;28;20681;-57
2022/02/21 07:09:58;;;;;;;2.50;1.08;;;26.60;51.00;;;;;;4992116;28;20217;-57
2022/02/21 07:12:29;;;;;;;2.88;1.08;;;26.50;50.90;;;;;;4991920;28;20200;-57
2022/02/21 07:14:59;;;;;;;1.75;0.90;;;26.50;50.90;;;;;;4991818;28;20210;-58
2022/02/21 07:17:30;;;;;;;1.85;1.00;;;26.50;50.90;;;;;;4991778;28;20244;-59
2022/02/21 07:20:00;;;;;;;2.15;1.15;;;26.50;51.00;;;;;;4991499;28;20217;-58
2022/02/21 07:22:31;;;;;;;3.10;1.48;;;26.50;50.90;;;;;;4991622;28;20283;-58
2022/02/21 07:25:03;;;;;;;2.25;1.20;;;26.50;50.90;;;;;;4990945;28;20730;-58
2022/02/21 07:27:34;;;;;;;2.90;1.10;;;26.50;51.00;;;;;;4991629;28;20189;-58
2022/02/21 07:30:05;;;;;;;2.55;1.15;;;26.40;50.90;;;;;;4991735;28;20630;-50
2022/02/21 07:32:36;;;;;;;9.23;2.08;;;26.40;50.90;;;;;;4991431;28;20197;-51
2022/02/21 07:35:07;;;;;;;10.90;2.08;;;26.40;50.70;;;;;;4991886;28;20229;-49
2022/02/21 07:37:39;;;;;;;7.97;1.90;;;26.30;50.70;;;;;;4991864;28;20669;-56
2022/02/21 07:40:13;;;;;;;8.27;2.08;;;26.20;50.80;;;;;;4991693;28;20283;-57
2022/02/21 07:42:49;;;;;;;5.88;1.67;;;26.00;51.00;;;;;;4991809;28;20229;-58
2022/02/21 07:45:20;;;;;;;7.40;1.80;;;25.90;51.10;;;;;;4991018;28;20240;-56
2022/02/21 07:47:53;;;;;;;6.53;1.45;;;25.90;51.30;;;;;;4990670;28;20713;-50
2022/02/21 07:50:24;;;;;;;10.18;2.03;;;25.80;51.20;;;;;;4991545;28;20677;-53
2022/02/21 07:52:55;;;;;;;5.82;1.70;;;25.80;51.40;;;;;;4998402;28;20260;-53
2022/02/21 07:55:27;;;;;;;7.97;1.92;;;25.80;51.60;;;;;;5009619;28;20697;-46
2022/02/21 07:57:59;;;;;;;7.07;1.88;;;25.80;51.70;;;;;;5008764;28;20197;-47
2022/02/21 08:00:30;;;;;;;7.20;2.20;;;25.70;51.60;;;;;;5009339;28;20611;-50
2022/02/21 08:03:00;;;;;;;7.20;1.75;;;25.70;51.70;;;;;;5008490;28;20212;-47
2022/02/21 08:05:31;;;;;;;7.13;1.73;;;25.70;51.70;;;;;;5008918;28;20259;-51
2022/02/21 08:08:02;;;;;;;5.25;1.25;;;25.70;51.70;;;;;;5034833;22;20228;-57
2022/02/21 08:10:34;;;;;;;5.03;1.52;;;25.60;51.70;;;;;;5028735;28;20220;-54
2022/02/21 08:13:05;;;;;;;3.95;1.40;;;25.60;51.70;;;;;;5029065;28;20196;-58
2022/02/21 08:15:36;;;;;;;5.72;1.50;;;25.60;51.70;;;;;;5028600;28;20271;-50
2022/02/21 08:18:07;;;;;;;6.68;1.77;;;25.60;51.70;;;;;;5028109;28;20246;-54
2022/02/21 08:20:37;;;;;;;5.03;1.42;;;25.50;51.80;;;;;;5027591;28;20731;-54
2022/02/21 08:23:08;;;;;;;7.25;1.70;;;25.50;51.70;;;;;;5028199;28;20687;-52
2022/02/21 08:25:40;;;;;;;4.30;1.50;;;25.50;52.40;;;;;;5028543;28;20192;-56
2022/02/21 08:28:11;;;;;;;4.05;1.80;;;25.50;51.80;;;;;;5028034;28;20246;-58
2022/02/21 08:30:41;;;;;;;4.90;1.52;;;25.50;51.80;;;;;;5028207;28;20215;-55
2022/02/21 08:33:12;;;;;;;4.38;1.50;;;25.50;51.80;;;;;;5027505;28;20264;-58
2022/02/21 08:35:42;;;;;;;3.72;1.30;;;25.40;51.70;;;;;;5028368;28;20250;-56
2022/02/21 08:38:13;;;;;;;4.15;1.50;;;25.40;51.80;;;;;;5025249;28;20200;-58
2022/02/21 08:40:45;;;;;;;3.15;1.40;;;25.40;51.70;;;;;;5026274;28;20220;-52
2022/02/21 08:43:16;;;;;;;4.75;1.83;;;25.40;51.80;;;;;;5027234;28;20273;-55
2022/02/21 08:45:48;;;;;;;4.10;1.48;;;25.40;51.80;;;;;;5027019;28;20192;-54
2022/02/21 08:48:19;;;;;;;5.22;1.65;;;25.30;51.70;;;;;;5027171;28;20212;-54
2022/02/21 08:50:49;;;;;;;3.63;1.40;;;25.30;51.80;;;;;;5028265;28;20267;-56
2022/02/21 08:53:20;;;;;;;4.60;1.52;;;25.30;51.70;;;;;;5027428;28;20200;-52
2022/02/21 08:55:52;;;;;;;3.42;1.30;;;25.30;51.80;;;;;;5026729;28;20254;-53
2022/02/21 08:58:23;;;;;;;4.20;1.50;;;25.30;51.80;;;;;;5027200;28;20706;-52
2022/02/21 09:00:53;;;;;;;4.35;1.42;;;25.20;51.70;;;;;;5027963;28;20216;-55
2022/02/21 09:03:26;;;;;;;3.63;1.30;;;25.20;51.80;;;;;;5028250;28;20220;-57
2022/02/21 09:05:57;;;;;;;4.05;1.30;;;25.20;51.80;;;;;;5027612;28;20647;-56
2022/02/21 09:08:31;;;;;;;4.78;1.25;;;25.20;51.80;;;;;;5028313;28;20254;-56
2022/02/21 09:11:03;;;;;;;2.88;1.30;;;25.10;51.70;;;;;;5027284;28;20220;-55
2022/02/21 09:13:34;;;;;;;3.78;1.58;;;25.10;51.80;;;;;;5028024;28;20200;-54
2022/02/21 09:16:05;;;;;;;3.50;1.25;;;25.10;51.80;;;;;;5026632;28;20201;-51
2022/02/21 09:18:38;;;;;;;3.63;1.60;;;25.10;51.90;;;;;;5027878;28;20196;-55
2022/02/21 09:21:09;;;;;;;4.55;1.40;;;25.00;51.80;;;;;;5028027;28;20220;-58
2022/02/21 09:23:39;;;;;;;2.78;1.42;;;25.00;51.80;;;;;;5027830;28;20267;-57
2022/02/21 09:26:12;;;;;;;2.97;1.20;;;25.00;51.90;;;;;;5027192;28;20192;-56
2022/02/21 09:28:42;;;;;;;2.83;1.13;;;24.90;51.80;;;;;;5027128;28;20595;-57
2022/02/21 09:31:13;;;;;;;3.90;1.30;;;24.90;51.90;;;;;;5027126;28;20298;-51
2022/02/21 09:33:44;;;;;;;3.92;1.42;;;24.90;51.90;;;;;;5027856;28;20254;-55
2022/02/21 09:36:14;;;;;;;2.17;1.33;;;24.90;52.00;;;;;;5028406;28;20197;-52
2022/02/21 09:38:45;;;;;;;2.60;1.35;;;24.90;51.90;;;;;;5027429;28;20754;-54
2022/02/21 09:41:17;;;;;;;2.40;1.30;;;24.90;51.90;;;;;;5027882;28;20963;-51
2022/02/21 09:43:48;;;;;;;3.55;1.33;;;24.80;51.90;;;;;;5026898;28;20286;-55
2022/02/21 09:46:19;;;;;;;2.80;1.10;;;24.80;51.90;;;;;;5027648;28;20242;-57
2022/02/21 09:48:53;;;;;;;2.38;1.13;;;24.80;51.90;;;;;;5031022;28;20200;-55
2022/02/21 09:51:24;;;;;;;2.45;1.20;;;24.80;51.90;;;;;;5030754;28;20295;-54
2022/02/21 09:53:55;;;;;;;3.53;1.20;;;24.70;51.90;;;;;;5029742;28;20192;-54
2022/02/21 09:56:27;;;;;;;5.93;1.60;;;24.70;52.00;;;;;;5031112;28;20199;-57
2022/02/21 09:58:58;;;;;;;2.25;1.10;;;24.70;52.00;;;;;;5031061;28;20648;-54
2022/02/21 10:01:29;;;;;;;4.20;1.65;;;24.70;52.00;;;;;;5028476;28;20233;-54
2022/02/21 10:03:59;;;;;;;3.60;1.40;;;24.60;52.00;;;;;;5031016;28;20219;-58
2022/02/21 10:06:32;;;;;;;2.53;1.30;;;24.60;52.00;;;;;;5031420;28;20200;-58
2022/02/21 10:09:07;;;;;;;2.80;1.38;;;24.50;52.00;;;;;;5030577;28;20564;-53
2022/02/21 10:11:43;;;;;;;1.67;1.30;;;24.50;52.10;;;;;;5027380;28;20208;-53
2022/02/21 10:14:15;;;;;;;3.50;1.38;;;24.50;52.10;;;;;;5031393;28;20200;-57
2022/02/21 10:16:48;;;;;;;3.00;1.30;;;24.50;52.10;;;;;;5030016;28;20657;-53
2022/02/21 10:19:20;;;;;;;3.63;1.40;;;24.50;52.10;;;;;;5030249;28;20558;-55
2022/02/21 10:21:59;;;;;;;2.42;1.38;;;24.40;52.10;;;;;;5030941;28;20216;-56
2022/02/21 10:24:32;;;;;;;3.13;1.30;;;24.40;52.10;;;;;;5030449;28;20315;-54
2022/02/21 10:27:10;;;;;;;3.40;1.52;;;24.40;52.10;;;;;;5026574;28;20259;-54
2022/02/21 10:29:59;;;;;;;2.63;1.45;;;24.40;52.20;;;;;;5028907;28;20663;-56
2022/02/21 10:32:31;;;;;;;3.95;1.42;;;24.40;52.20;;;;;;5028597;28;20200;-57
2022/02/21 10:35:15;;;;;;;3.15;1.50;;;24.40;52.20;;;;;;5030338;28;20231;-58
2022/02/21 10:37:47;;;;;;;3.38;1.40;;;24.30;52.30;;;;;;5030476;28;20644;-52
2022/02/21 10:40:19;;;;;;;5.30;2.08;;;24.30;52.30;;;;;;5030464;28;20228;-55
2022/02/21 10:43:05;;;;;;;4.22;1.70;;;24.30;52.40;;;;;;5027981;28;20196;-54
2022/02/21 10:45:36;;;;;;;3.95;1.73;;;24.20;52.40;;;;;;5028685;28;20236;-56
2022/02/21 10:48:08;;;;;;;3.60;1.67;;;24.20;52.40;;;;;;5029973;28;20250;-53
2022/02/21 10:50:40;;;;;;;4.38;1.60;;;24.20;52.50;;;;;;5027827;28;21437;-53
2022/02/21 10:53:13;;;;;;;3.45;1.65;;;24.20;52.50;;;;;;5031165;28;20192;-56
2022/02/21 10:55:44;;;;;;;3.83;1.60;;;24.20;52.60;;;;;;5030248;28;20282;-57
2022/02/21 10:58:25;;;;;;;4.35;1.75;;;24.20;52.50;;;;;;5028982;28;20192;-58
2022/02/21 11:00:57;;;;;;;3.85;1.70;;;24.10;52.50;;;;;;5030687;28;20274;-52
2022/02/21 11:03:29;;;;;;;6.03;1.92;;;24.10;52.50;;;;;;5029775;28;20226;-51
2022/02/21 11:06:01;;;;;;;3.53;1.50;;;24.10;52.50;;;;;;5030503;28;20212;-57
2022/02/21 11:08:33;;;;;;;4.30;1.88;;;24.00;52.50;;;;;;5030656;28;20200;-56
2022/02/21 11:11:07;;;;;;;3.22;1.75;;;24.00;52.50;;;;;;5018930;28;20693;-49
2022/02/21 11:13:39;;;;;;;7.68;1.80;;;24.00;52.60;;;;;;5013183;28;20800;-55
2022/02/21 11:16:11;;;;;;;4.75;1.80;;;24.00;52.60;;;;;;5012262;28;20665;-52
2022/02/21 11:18:42;;;;;;;3.95;1.70;;;24.00;52.60;;;;;;5011939;28;20620;-52
2022/02/21 11:21:13;;;;;;;4.03;1.55;;;23.90;52.50;;;;;;5011726;28;20221;-53
2022/02/21 11:23:44;;;;;;;5.05;2.10;;;24.00;52.60;;;;;;5011521;28;20869;-55
2022/02/21 11:26:22;;;;;;;4.30;1.63;;;23.90;52.50;;;;;;5011223;28;20657;-55
2022/02/21 11:28:59;;;;;;;5.10;1.90;;;23.90;52.60;;;;;;5011462;28;20203;-55
2022/02/21 11:31:34;;;;;;;3.13;1.77;;;23.90;53.20;;;;;;5011694;28;20303;-54
2022/02/21 11:34:05;;;;;;;4.88;1.95;;;23.80;52.60;;;;;;5011254;28;20204;-52
2022/02/21 11:36:36;;;;;;;4.32;1.90;;;23.80;52.60;;;;;;5011096;28;20197;-52
2022/02/21 11:39:22;;;;;;;6.28;2.00;;;23.80;52.70;;;;;;5011068;28;20653;-50
2022/02/21 11:42:12;;;;;;;5.47;1.83;;;23.70;52.70;;;;;;5010561;28;20869;-51
2022/02/21 11:44:53;;;;;;;6.07;2.00;;;23.70;52.70;;;;;;5010749;28;20240;-51
2022/02/21 11:47:41;;;;;;;5.85;1.80;;;23.70;52.70;;;;;;5011187;28;20266;-52
2022/02/21 11:50:25;;;;;;;4.93;1.90;;;23.70;52.70;;;;;;5011273;28;20220;-55
2022/02/21 11:52:58;;;;;;;3.78;1.52;;;23.70;52.80;;;;;;5010323;28;20189;-53
2022/02/21 11:55:40;;;;;;;5.72;2.03;;;23.60;52.70;;;;;;5010573;28;20205;-53
2022/02/21 11:58:37;;;;;;;4.38;1.70;;;23.60;52.70;;;;;;5010993;28;20200;-51
2022/02/21 12:01:22;;;;;;;6.63;1.92;;;23.60;52.80;;;;;;5010805;28;20216;-53
2022/02/21 12:04:17;;;;;;;4.53;1.95;;;23.60;52.80;;;;;;5011021;28;20294;-56
2022/02/21 12:06:57;;;;;;;3.65;1.55;;;23.60;52.80;;;;;;5011316;28;20284;-54
2022/02/21 12:09:28;;;;;;;4.70;1.95;;;23.50;52.70;;;;;;5010541;28;20548;-54
2022/02/21 12:12:25;;;;;;;4.13;1.98;;;23.50;52.70;;;;;;5010152;28;20193;-54
2022/02/21 12:15:14;;;;;;;4.28;1.98;;;23.50;52.80;;;;;;5010318;28;20258;-54
2022/02/21 12:17:46;;;;;;;3.88;1.98;;;23.50;52.80;;;;;;5010283;28;20255;-55
2022/02/21 12:20:38;;;;;;;4.85;2.08;;;23.50;52.80;;;;;;5010448;28;20213;-55
2022/02/21 12:23:26;;;;;;;4.63;2.10;;;23.40;52.80;;;;;;5010772;28;20259;-55
2022/02/21 12:26:17;;;;;;;4.55;1.88;;;23.40;52.80;;;;;;5010227;28;20244;-53
2022/02/21 12:29:08;;;;;;;5.18;1.98;;;23.40;52.90;;;;;;5010294;28;20251;-52
2022/02/21 12:31:41;;;;;;;3.92;1.55;;;23.40;52.80;;;;;;5009906;28;20306;-54
2022/02/21 12:34:16;;;;;;;2.47;1.40;;;23.30;52.90;;;;;;5010124;28;20208;-53
2022/02/21 12:36:48;;;;;;;4.88;2.03;;;23.30;52.90;;;;;;5010248;28;20201;-54
2022/02/21 12:39:23;;;;;;;3.05;1.60;;;23.30;53.60;;;;;;5009917;28;20275;-51
2022/02/21 12:41:55;;;;;;;2.90;1.50;;;23.30;52.90;;;;;;5009511;28;20220;-52
2022/02/21 12:44:25;;;;;;;3.70;1.42;;;23.30;53.00;;;;;;5009706;28;20739;-51
2022/02/21 12:46:57;;;;;;;5.05;1.80;;;23.20;52.90;;;;;;5009978;28;20719;-56
2022/02/21 12:49:32;;;;;;;4.43;2.08;;;23.20;53.00;;;;;;5009951;28;20228;-58
2022/02/21 12:52:08;;;;;;;3.70;1.63;;;23.20;53.00;;;;;;5008709;28;20247;-54
2022/02/21 12:54:50;;;;;;;4.28;1.80;;;23.20;53.00;;;;;;4990905;28;20399;-55
2022/02/21 12:57:22;;;;;;;4.20;1.85;;;23.20;53.00;;;;;;5006244;28;20201;-50
2022/02/21 12:59:54;;;;;;;3.83;1.50;;;23.20;53.00;;;;;;5010030;28;20609;-52
2022/02/21 13:02:25;;;;;;;4.07;1.80;;;23.10;53.00;;;;;;5010246;28;20247;-55
2022/02/21 13:05:04;;;;;;;5.05;1.60;;;23.10;53.10;;;;;;5010247;28;20224;-55
2022/02/21 13:07:35;;;;;;;4.15;1.58;;;23.10;53.10;;;;;;5022537;22;20826;-58
2022/02/21 13:10:10;;;;;;;5.40;2.17;;;23.10;53.10;;;;;;5010037;28;20291;-59
2022/02/21 13:12:41;;;;;;;4.70;1.90;;;23.00;53.00;;;;;;5009769;28;20497;-58
2022/02/21 13:15:14;;;;;;;2.83;1.63;;;23.00;53.10;;;;;;5010239;28;20205;-59